Time,TemperatureF,DewpointF,PressureIn,WindDirection,WindDirectionDegrees,WindSpeedMPH,WindSpeedGustMPH,Humidity,HourlyPrecipIn,Conditions,Clouds,dailyrainin,SoftwareType,DateUTC
2013-04-11 00:00:00,55.8,37.0,30.15,WNW,288,2.2,3.6,49,0.00,,,-99.99,wx200d/1.3,2013-04-11 07:00:00,
2013-04-11 00:15:00,56.1,36.0,30.12,West,276,3.6,4.9,47,0.00,,,-99.99,wx200d/1.3,2013-04-11 07:15:00,
2013-04-11 00:30:00,55.4,37.0,30.12,West,275,3.6,3.6,49,0.00,,,-99.99,wx200d/1.3,2013-04-11 07:30:00,
2013-04-11 00:45:00,55.4,37.0,30.12,NNW,334,4.0,4.9,50,0.00,,,-99.99,wx200d/1.3,2013-04-11 07:45:00,
2013-04-11 01:00:00,54.0,39.0,30.15,West,271,4.0,5.4,57,0.00,,,-99.99,wx200d/1.3,2013-04-11 08:00:00,
2013-04-11 01:15:00,53.8,39.0,30.12,West,280,4.0,5.4,59,0.00,,,-99.99,wx200d/1.3,2013-04-11 08:15:00,
2013-04-11 01:30:00,54.1,39.0,30.12,West,271,4.0,4.0,56,0.00,,,-99.99,wx200d/1.3,2013-04-11 08:30:00,
2013-04-11 01:45:00,55.4,36.0,30.12,WNW,282,3.6,8.1,48,0.00,,,-99.99,wx200d/1.3,2013-04-11 08:45:00,
2013-04-11 02:00:00,54.9,37.0,30.12,West,275,3.1,3.1,50,0.00,,,-99.99,wx200d/1.3,2013-04-11 09:00:00,
2013-04-11 02:15:00,53.6,37.0,30.12,West,266,3.6,3.6,55,0.00,,,-99.99,wx200d/1.3,2013-04-11 09:15:00,
2013-04-11 02:30:00,52.5,41.0,30.12,WSW,252,3.6,3.6,64,0.00,,,-99.99,wx200d/1.3,2013-04-11 09:30:00,
2013-04-11 02:45:00,52.3,39.0,30.12,West,278,3.1,5.4,62,0.00,,,-99.99,wx200d/1.3,2013-04-11 09:45:00,
2013-04-11 03:00:00,52.3,37.0,30.12,WNW,290,3.1,4.0,60,0.00,,,-99.99,wx200d/1.3,2013-04-11 10:00:00,
2013-04-11 03:15:00,51.4,41.0,30.12,West,280,4.5,4.9,67,0.00,,,-99.99,wx200d/1.3,2013-04-11 10:15:00,
2013-04-11 03:30:00,50.7,41.0,30.09,West,278,3.1,3.6,70,0.00,,,-99.99,wx200d/1.3,2013-04-11 10:30:00,
2013-04-11 03:45:00,50.5,41.0,30.09,WNW,293,3.6,5.4,71,0.00,,,-99.99,wx200d/1.3,2013-04-11 10:45:00,
2013-04-11 04:00:00,50.0,41.0,30.09,WNW,299,4.0,4.0,73,0.00,,,-99.99,wx200d/1.3,2013-04-11 11:00:00,
2013-04-11 04:15:00,49.8,43.0,30.12,WNW,290,3.1,3.6,74,0.00,,,-99.99,wx200d/1.3,2013-04-11 11:15:00,
2013-04-11 04:30:00,49.8,43.0,30.09,West,268,2.7,3.6,75,0.00,,,-99.99,wx200d/1.3,2013-04-11 11:30:00,
2013-04-11 04:45:00,49.6,43.0,30.12,WNW,290,3.1,3.1,75,0.00,,,-99.99,wx200d/1.3,2013-04-11 11:45:00,
2013-04-11 05:00:00,49.5,43.0,30.12,West,273,0.0,0.0,74,0.00,,,-99.99,wx200d/1.3,2013-04-11 12:00:00,
2013-04-11 05:15:00,49.5,41.0,30.09,West,265,0.0,2.2,73,0.00,,,-99.99,wx200d/1.3,2013-04-11 12:15:00,
2013-04-11 05:30:00,49.5,41.0,30.09,West,277,0.0,2.2,71,0.00,,,-99.99,wx200d/1.3,2013-04-11 12:30:00,
2013-04-11 05:45:00,49.5,41.0,30.09,West,260,0.0,0.0,70,0.00,,,-99.99,wx200d/1.3,2013-04-11 12:45:00,
2013-04-11 06:00:00,49.3,41.0,30.09,West,268,0.0,0.0,70,0.00,,,-99.99,wx200d/1.3,2013-04-11 13:00:00,
2013-04-11 06:15:00,49.1,41.0,30.09,West,272,0.0,0.0,70,0.00,,,-99.99,wx200d/1.3,2013-04-11 13:15:00,
2013-04-11 06:30:00,48.9,39.0,30.09,West,273,0.0,0.0,71,0.00,,,-99.99,wx200d/1.3,2013-04-11 13:30:00,
2013-04-11 06:45:00,48.6,39.0,30.09,West,273,0.0,0.0,71,0.00,,,-99.99,wx200d/1.3,2013-04-11 13:45:00,
2013-04-11 07:00:00,50.2,41.0,30.09,West,273,0.0,0.0,71,0.00,,,-99.99,wx200d/1.3,2013-04-11 14:00:00,
2013-04-11 07:15:00,53.1,41.0,30.09,West,273,0.0,0.0,62,0.00,,,-99.99,wx200d/1.3,2013-04-11 14:15:00,
2013-04-11 07:30:00,52.0,41.0,30.12,West,273,0.0,0.0,66,0.00,,,-99.99,wx200d/1.3,2013-04-11 14:30:00,
2013-04-11 07:45:00,52.2,41.0,30.12,West,273,0.0,0.0,65,0.00,,,-99.99,wx200d/1.3,2013-04-11 14:45:00,
2013-04-11 08:00:00,52.9,39.0,30.12,West,273,0.0,0.0,60,0.00,,,-99.99,wx200d/1.3,2013-04-11 15:00:00,
2013-04-11 08:15:00,53.8,39.0,30.12,West,273,0.0,0.0,56,0.00,,,-99.99,wx200d/1.3,2013-04-11 15:15:00,
2013-04-11 08:30:00,54.3,36.0,30.09,West,273,0.0,0.0,50,0.00,,,-99.99,wx200d/1.3,2013-04-11 15:30:00,
2013-04-11 08:45:00,55.4,36.0,30.09,West,260,0.0,0.0,47,0.00,,,-99.99,wx200d/1.3,2013-04-11 15:45:00,
2013-04-11 09:00:00,56.3,34.0,30.12,West,260,0.0,0.0,42,0.00,,,-99.99,wx200d/1.3,2013-04-11 16:00:00,
2013-04-11 09:15:00,57.2,32.0,30.09,NNW,341,0.0,0.0,37,0.00,,,-99.99,wx200d/1.3,2013-04-11 16:15:00,
2013-04-11 09:30:00,57.9,32.0,30.12,West,268,0.0,0.0,36,0.00,,,-99.99,wx200d/1.3,2013-04-11 16:30:00,
2013-04-11 09:45:00,59.2,32.0,30.12,WNW,287,0.0,0.0,34,0.00,,,-99.99,wx200d/1.3,2013-04-11 16:45:00,
2013-04-11 10:00:00,59.7,32.0,30.12,West,270,0.0,0.0,31,0.00,,,-99.99,wx200d/1.3,2013-04-11 17:00:00,
2013-04-11 10:15:00,60.8,32.0,30.12,ENE,69,0.0,0.0,30,0.00,,,-99.99,wx200d/1.3,2013-04-11 17:15:00,
2013-04-11 10:30:00,62.1,32.0,30.12,West,260,0.0,0.0,28,0.00,,,-99.99,wx200d/1.3,2013-04-11 17:30:00,
2013-04-11 10:45:00,62.2,32.0,30.12,West,278,0.0,0.0,27,0.00,,,-99.99,wx200d/1.3,2013-04-11 17:45:00,
2013-04-11 11:00:00,61.0,32.0,30.12,West,278,2.2,0.0,28,0.00,,,-99.99,wx200d/1.3,2013-04-11 18:00:00,
2013-04-11 11:15:00,59.5,32.0,30.09,WNW,287,2.7,3.6,30,0.00,,,-99.99,wx200d/1.3,2013-04-11 18:15:00,
2013-04-11 11:30:00,60.6,32.0,30.12,WNW,285,3.6,4.0,29,0.00,,,-99.99,wx200d/1.3,2013-04-11 18:30:00,
2013-04-11 11:45:00,60.4,32.0,30.09,West,264,2.2,2.7,29,0.00,,,-99.99,wx200d/1.3,2013-04-11 18:45:00,
2013-04-11 12:00:00,60.8,32.0,30.09,ENE,58,2.7,3.1,28,0.00,,,-99.99,wx200d/1.3,2013-04-11 19:00:00,
2013-04-11 12:15:00,61.5,32.0,30.09,WNW,285,2.2,2.2,28,0.00,,,-99.99,wx200d/1.3,2013-04-11 19:15:00,
2013-04-11 12:30:00,61.7,32.0,30.09,WNW,294,3.6,3.6,27,0.00,,,-99.99,wx200d/1.3,2013-04-11 19:30:00,
2013-04-11 12:45:00,62.2,32.0,30.09,West,267,2.7,3.1,27,0.00,,,-99.99,wx200d/1.3,2013-04-11 19:45:00,
2013-04-11 13:00:00,61.9,32.0,30.06,WSW,249,0.0,2.7,27,0.00,,,-99.99,wx200d/1.3,2013-04-11 20:00:00,
2013-04-11 13:15:00,61.7,32.0,30.06,WSW,256,2.7,3.6,27,0.00,,,-99.99,wx200d/1.3,2013-04-11 20:15:00,
2013-04-11 13:30:00,61.7,32.0,30.06,West,274,0.0,2.7,26,0.00,,,-99.99,wx200d/1.3,2013-04-11 20:30:00,
2013-04-11 13:45:00,62.4,32.0,30.06,West,279,3.1,3.1,26,0.00,,,-99.99,wx200d/1.3,2013-04-11 20:45:00,
2013-04-11 14:00:00,64.2,32.0,30.06,WSW,249,3.1,3.1,24,0.00,,,-99.99,wx200d/1.3,2013-04-11 21:00:00,
2013-04-11 14:15:00,66.4,32.0,30.03,West,271,0.0,0.0,23,0.00,,,-99.99,wx200d/1.3,2013-04-11 21:15:00,
2013-04-11 14:30:00,67.8,32.0,30.03,West,270,2.2,2.7,22,0.00,,,-99.99,wx200d/1.3,2013-04-11 21:30:00,
2013-04-11 14:45:00,67.3,32.0,30.03,West,279,2.2,2.2,22,0.00,,,-99.99,wx200d/1.3,2013-04-11 21:45:00,
2013-04-11 15:00:00,66.7,32.0,30.03,West,278,2.7,4.0,20,0.00,,,-99.99,wx200d/1.3,2013-04-11 22:00:00,
2013-04-11 15:15:00,67.5,32.0,30.00,NE,36,0.0,2.7,20,0.00,,,-99.99,wx200d/1.3,2013-04-11 22:15:00,
2013-04-11 15:30:00,68.7,32.0,30.00,West,272,0.0,2.7,17,0.00,,,-99.99,wx200d/1.3,2013-04-11 22:30:00,
2013-04-11 15:45:00,68.0,32.0,30.00,West,272,0.0,0.0,20,0.00,,,-99.99,wx200d/1.3,2013-04-11 22:45:00,
2013-04-11 16:00:00,66.6,32.0,30.00,South,170,2.2,0.0,20,0.00,,,-99.99,wx200d/1.3,2013-04-11 23:00:00,
2013-04-11 16:15:00,64.0,32.0,29.97,WSW,240,0.0,3.6,23,0.00,,,-99.99,wx200d/1.3,2013-04-11 23:15:00,
2013-04-11 16:30:00,63.1,32.0,29.97,West,273,0.0,3.1,24,0.00,,,-99.99,wx200d/1.3,2013-04-11 23:30:00,
2013-04-11 16:45:00,62.6,32.0,29.97,West,259,3.1,3.1,24,0.00,,,-99.99,wx200d/1.3,2013-04-11 23:45:00,
2013-04-11 17:00:00,63.0,32.0,29.97,West,281,2.7,2.7,24,0.00,,,-99.99,wx200d/1.3,2013-04-12 00:00:00,
2013-04-11 17:15:00,62.6,32.0,29.97,West,279,2.7,4.0,24,0.00,,,-99.99,wx200d/1.3,2013-04-12 00:15:00,
2013-04-11 17:30:00,61.7,32.0,29.97,SE,145,3.6,3.6,25,0.00,,,-99.99,wx200d/1.3,2013-04-12 00:30:00,
2013-04-11 17:45:00,61.0,32.0,29.97,West,262,3.6,3.6,25,0.00,,,-99.99,wx200d/1.3,2013-04-12 00:45:00,
2013-04-11 18:00:00,60.6,32.0,29.94,West,275,3.1,4.9,25,0.00,,,-99.99,wx200d/1.3,2013-04-12 01:00:00,
2013-04-11 18:15:00,60.6,32.0,29.94,WSW,251,0.0,3.1,25,0.00,,,-99.99,wx200d/1.3,2013-04-12 01:15:00,
2013-04-11 18:30:00,61.0,32.0,29.94,NW,304,3.1,0.0,25,0.00,,,-99.99,wx200d/1.3,2013-04-12 01:30:00,
2013-04-11 18:45:00,63.0,32.0,29.94,WNW,293,3.1,4.0,24,0.00,,,-99.99,wx200d/1.3,2013-04-12 01:45:00,
2013-04-11 19:00:00,61.9,32.0,29.94,WNW,294,0.0,2.7,24,0.00,,,-99.99,wx200d/1.3,2013-04-12 02:00:00,
2013-04-11 19:15:00,59.0,32.0,29.94,NE,54,0.0,4.0,25,0.00,,,-99.99,wx200d/1.3,2013-04-12 02:15:00,
2013-04-11 19:30:00,56.1,32.0,29.94,West,273,0.0,0.0,28,0.00,,,-99.99,wx200d/1.3,2013-04-12 02:30:00,
2013-04-11 19:45:00,54.9,32.0,29.94,West,266,0.0,0.0,30,0.00,,,-99.99,wx200d/1.3,2013-04-12 02:45:00,
2013-04-11 20:00:00,54.1,32.0,29.94,West,270,0.0,0.0,32,0.00,,,-99.99,wx200d/1.3,2013-04-12 03:00:00,
2013-04-11 20:15:00,54.0,32.0,29.94,West,270,0.0,0.0,32,0.00,,,-99.99,wx200d/1.3,2013-04-12 03:15:00,
2013-04-11 20:30:00,53.6,32.0,29.94,West,272,0.0,0.0,35,0.00,,,-99.99,wx200d/1.3,2013-04-12 03:30:00,
2013-04-11 20:45:00,52.9,32.0,29.94,West,269,0.0,0.0,39,0.00,,,-99.99,wx200d/1.3,2013-04-12 03:45:00,
2013-04-11 21:00:00,52.0,32.0,29.94,WSW,245,0.0,0.0,42,0.00,,,-99.99,wx200d/1.3,2013-04-12 04:00:00,
2013-04-11 21:15:00,51.8,32.0,29.97,WSW,257,0.0,0.0,45,0.00,,,-99.99,wx200d/1.3,2013-04-12 04:15:00,
2013-04-11 21:30:00,51.4,32.0,29.94,WSW,249,0.0,3.6,47,0.00,,,-99.99,wx200d/1.3,2013-04-12 04:30:00,
2013-04-11 21:45:00,51.3,32.0,29.97,West,276,0.0,0.0,47,0.00,,,-99.99,wx200d/1.3,2013-04-12 04:45:00,
2013-04-11 22:00:00,50.7,32.0,29.97,West,277,0.0,0.0,48,0.00,,,-99.99,wx200d/1.3,2013-04-12 05:00:00,
2013-04-11 22:15:00,50.5,32.0,29.94,West,277,0.0,0.0,48,0.00,,,-99.99,wx200d/1.3,2013-04-12 05:15:00,
2013-04-11 22:30:00,50.5,32.0,29.97,West,277,0.0,0.0,49,0.00,,,-99.99,wx200d/1.3,2013-04-12 05:30:00,
2013-04-11 22:45:00,50.5,32.0,29.97,West,280,0.0,0.0,50,0.00,,,-99.99,wx200d/1.3,2013-04-12 05:45:00,
2013-04-11 23:00:00,50.4,32.0,29.97,West,267,0.0,0.0,51,0.00,,,-99.99,wx200d/1.3,2013-04-12 06:00:00,
2013-04-11 23:15:00,50.2,32.0,29.97,West,267,0.0,0.0,51,0.00,,,-99.99,wx200d/1.3,2013-04-12 06:15:00,
2013-04-11 23:30:00,50.0,34.0,29.97,WSW,249,0.0,0.0,52,0.00,,,-99.99,wx200d/1.3,2013-04-12 06:30:00,
2013-04-11 23:45:00,49.8,34.0,29.94,WSW,249,0.0,0.0,52,0.00,,,-99.99,wx200d/1.3,2013-04-12 06:45:00,